createdAt,value
2023-04-15T00:00:57.653Z,80.27
2023-04-15T00:03:25.047Z,80.22
2023-04-15T00:05:52.293Z,80.17
2023-04-15T00:08:19.716Z,80.15
2023-04-15T00:10:46.802Z,80.20
2023-04-15T00:13:13.743Z,80.29
2023-04-15T00:15:42.370Z,80.17
2023-04-15T00:18:09.876Z,80.20
2023-04-15T00:20:37.282Z,80.31
2023-04-15T00:23:04.485Z,80.33
2023-04-15T00:25:31.678Z,80.46
2023-04-15T00:27:58.873Z,80.33
2023-04-15T00:30:26.756Z,80.41
2023-04-15T00:32:53.814Z,80.46
2023-04-15T00:35:22.560Z,80.50
2023-04-15T00:37:51.635Z,80.73
2023-04-15T00:40:21.074Z,80.70
2023-04-15T00:42:48.273Z,80.62
2023-04-15T00:45:15.696Z,80.69
2023-04-15T00:47:44.181Z,80.67
2023-04-15T00:50:12.834Z,80.75
2023-04-15T00:52:40.660Z,80.72
2023-04-15T00:55:08.795Z,80.97
2023-04-15T00:57:36.673Z,81.17
2023-04-15T01:00:05.760Z,81.27
2023-04-15T01:02:34.101Z,81.10
2023-04-15T01:05:02.921Z,81.06
2023-04-15T01:07:30.067Z,81.12
2023-04-15T01:09:57.788Z,81.25
2023-04-15T01:12:27.271Z,81.17
2023-04-15T01:14:56.126Z,81.23
2023-04-15T01:17:24.625Z,81.29
2023-04-15T01:19:52.943Z,81.39
2023-04-15T01:22:19.775Z,81.20
2023-04-15T01:25:23.291Z,81.14
2023-04-15T01:27:51.199Z,81.30
2023-04-15T01:30:18.008Z,81.27
2023-04-15T01:32:45.131Z,81.48
2023-04-15T01:35:11.950Z,81.33
2023-04-15T01:37:38.953Z,81.40
2023-04-15T01:40:06.693Z,81.32
2023-04-15T01:42:36.004Z,81.50
2023-04-15T01:45:03.317Z,81.49
2023-04-15T01:47:30.538Z,81.59
2023-04-15T01:49:57.321Z,81.55
2023-04-15T01:52:24.473Z,81.72
2023-04-15T01:54:51.438Z,81.68
2023-04-15T01:57:19.920Z,81.74
2023-04-15T02:00:12.687Z,81.76
2023-04-15T02:02:42.496Z,81.80
2023-04-15T02:05:09.904Z,81.94
2023-04-15T02:07:37.963Z,81.78
2023-04-15T02:10:05.309Z,81.77
2023-04-15T02:12:33.109Z,81.77
2023-04-15T02:15:00.483Z,81.96
2023-04-15T02:17:27.470Z,81.90
2023-04-15T02:19:56.734Z,81.78
2023-04-15T02:22:24.696Z,81.83
2023-04-15T02:24:52.706Z,81.94
2023-04-15T02:27:19.904Z,82.15
2023-04-15T02:29:46.887Z,82.14
2023-04-15T02:32:14.746Z,82.07
2023-04-15T02:34:42.928Z,82.06
2023-04-15T02:37:12.330Z,82.11
2023-04-15T02:39:39.513Z,82.22
2023-04-15T02:42:06.333Z,82.29
2023-04-15T02:44:34.319Z,82.38
2023-04-15T02:47:04.930Z,82.33
2023-04-15T02:49:33.221Z,82.54
2023-04-15T02:52:00.879Z,82.81
2023-04-15T02:54:30.989Z,82.79
2023-04-15T02:56:58.130Z,83.07
2023-04-15T02:59:25.124Z,83.18
2023-04-15T03:01:52.166Z,82.96
2023-04-15T03:04:19.225Z,82.98
2023-04-15T03:06:46.334Z,83.16
2023-04-15T03:09:13.230Z,83.25
2023-04-15T03:11:42.135Z,83.16
2023-04-15T03:14:11.197Z,83.11
2023-04-15T03:16:41.994Z,82.97
2023-04-15T03:19:09.120Z,82.59
2023-04-15T03:21:37.810Z,82.56
2023-04-15T03:24:04.886Z,82.44
2023-04-15T03:26:32.262Z,82.52
2023-04-15T03:29:03.535Z,82.52
2023-04-15T03:31:31.135Z,82.49
2023-04-15T03:33:58.011Z,82.41
2023-04-15T03:36:25.937Z,82.39
2023-04-15T03:38:53.969Z,82.40
2023-04-15T03:41:20.914Z,82.46
2023-04-15T03:43:47.759Z,82.26
2023-04-15T03:46:14.987Z,82.42
2023-04-15T03:48:41.944Z,82.33
2023-04-15T03:51:08.905Z,82.39
2023-04-15T03:53:35.748Z,82.46
2023-04-15T03:56:02.706Z,82.47
2023-04-15T03:58:29.528Z,82.47
2023-04-15T04:00:56.453Z,82.50
2023-04-15T04:03:24.668Z,82.35
2023-04-15T04:05:52.473Z,82.66
2023-04-15T04:08:20.437Z,82.73
2023-04-15T04:10:47.429Z,82.52
2023-04-15T04:13:14.261Z,82.34
2023-04-15T04:15:41.457Z,82.30
2023-04-15T04:18:08.339Z,82.48
2023-04-15T04:20:35.679Z,82.52
2023-04-15T04:23:02.551Z,82.27
2023-04-15T04:25:29.615Z,82.38
2023-04-15T04:27:57.332Z,82.26
2023-04-15T04:30:24.815Z,82.29
2023-04-15T04:32:51.777Z,82.25
2023-04-15T04:35:19.001Z,82.10
2023-04-15T04:37:45.797Z,82.21
2023-04-15T04:40:14.442Z,82.12
2023-04-15T04:42:41.533Z,82.17
2023-04-15T04:45:09.991Z,82.24
2023-04-15T04:47:38.268Z,82.32
2023-04-15T04:50:06.808Z,82.10
2023-04-15T04:52:33.658Z,82.10
2023-04-15T04:55:01.995Z,82.20
2023-04-15T04:57:29.274Z,82.28
2023-04-15T04:59:56.708Z,82.23
2023-04-15T05:02:23.919Z,82.17
2023-04-15T05:04:54.439Z,82.32
2023-04-15T05:07:21.366Z,82.33
2023-04-15T05:09:48.305Z,82.35
2023-04-15T05:12:15.348Z,82.39
2023-04-15T05:14:42.468Z,82.42
2023-04-15T05:17:09.512Z,82.39
2023-04-15T05:19:37.132Z,82.33
2023-04-15T05:22:04.264Z,82.13
2023-04-15T05:24:31.055Z,82.26
2023-04-15T05:26:57.951Z,82.01
2023-04-15T05:29:24.849Z,82.09
2023-04-15T05:31:51.994Z,81.97
2023-04-15T05:34:19.175Z,82.00
2023-04-15T05:36:46.230Z,81.94
2023-04-15T05:39:13.040Z,81.86
2023-04-15T05:41:40.210Z,81.84
2023-04-15T05:44:07.109Z,81.97
2023-04-15T05:46:34.606Z,82.23
2023-04-15T05:49:01.930Z,82.31
2023-04-15T05:51:28.994Z,82.27
2023-04-15T05:53:55.895Z,82.18
2023-04-15T05:56:23.003Z,81.93
2023-04-15T05:58:51.322Z,81.84
2023-04-15T06:01:19.599Z,81.81
2023-04-15T06:03:46.618Z,81.84
2023-04-15T06:06:13.519Z,81.86
2023-04-15T06:08:40.335Z,82.17
2023-04-15T06:11:07.299Z,82.02
2023-04-15T06:13:35.279Z,82.01
2023-04-15T06:16:02.263Z,81.91
2023-04-15T06:18:29.517Z,81.77
2023-04-15T06:20:57.654Z,81.57
2023-04-15T06:23:25.769Z,81.41
2023-04-15T06:25:53.829Z,81.47
2023-04-15T06:28:21.096Z,81.48
2023-04-15T06:30:48.050Z,81.60
2023-04-15T06:33:15.135Z,81.56
2023-04-15T06:35:42.108Z,81.51
2023-04-15T06:38:08.926Z,81.54
2023-04-15T06:40:36.056Z,81.55
2023-04-15T06:43:02.887Z,81.52
2023-04-15T06:45:31.556Z,81.33
2023-04-15T06:47:59.166Z,81.10
2023-04-15T06:50:26.359Z,81.22
2023-04-15T06:52:54.871Z,81.34
2023-04-15T06:55:21.749Z,81.36
2023-04-15T06:57:48.744Z,81.33
2023-04-15T07:00:15.749Z,81.43
2023-04-15T07:02:42.808Z,81.50
2023-04-15T07:05:10.079Z,81.39
2023-04-15T07:07:37.396Z,81.29
2023-04-15T07:10:04.657Z,81.18
2023-04-15T07:12:32.190Z,81.02
2023-04-15T07:14:59.448Z,80.84
2023-04-15T07:17:26.617Z,81.04
2023-04-15T07:19:53.592Z,81.23
2023-04-15T07:22:20.412Z,81.11
2023-04-15T07:24:47.247Z,81.01
2023-04-15T07:27:14.287Z,81.07
2023-04-15T07:29:41.497Z,81.19
2023-04-15T07:32:10.554Z,81.01
2023-04-15T07:34:38.188Z,81.09
2023-04-15T07:37:05.232Z,81.14
2023-04-15T07:39:32.219Z,81.04
2023-04-15T07:41:59.266Z,80.99
2023-04-15T07:44:27.347Z,80.88
2023-04-15T07:46:54.469Z,80.96
2023-04-15T07:49:21.658Z,81.10
2023-04-15T07:51:49.368Z,81.19
2023-04-15T07:54:16.387Z,81.20
2023-04-15T07:56:43.329Z,81.22
2023-04-15T07:59:10.490Z,81.17
2023-04-15T08:01:38.426Z,81.27
2023-04-15T08:04:05.819Z,81.28
2023-04-15T08:06:33.309Z,81.31
2023-04-15T08:09:01.691Z,81.45
2023-04-15T08:11:29.505Z,81.62
2023-04-15T08:13:57.310Z,81.63
2023-04-15T08:16:26.054Z,81.40
2023-04-15T08:18:53.997Z,81.36
2023-04-15T08:21:21.882Z,81.28
2023-04-15T08:23:50.651Z,81.23
2023-04-15T08:26:18.359Z,81.23
2023-04-15T08:28:46.454Z,81.17
2023-04-15T08:31:15.630Z,81.20
2023-04-15T08:33:43.395Z,81.21
2023-04-15T08:36:10.812Z,81.26
2023-04-15T08:38:37.702Z,81.32
2023-04-15T08:41:12.840Z,81.38
2023-04-15T08:43:58.835Z,81.42
2023-04-15T08:46:26.920Z,81.19
2023-04-15T08:48:57.655Z,81.23
2023-04-15T08:51:25.793Z,81.50
2023-04-15T08:53:53.385Z,81.26
2023-04-15T08:56:26.426Z,81.37
2023-04-15T08:58:53.966Z,81.37
2023-04-15T09:01:21.744Z,81.33
2023-04-15T09:03:51.177Z,81.04
2023-04-15T09:06:18.735Z,80.81
2023-04-15T09:08:45.841Z,80.71
2023-04-15T09:11:13.390Z,80.70
2023-04-15T09:13:40.714Z,80.65
2023-04-15T09:16:09.411Z,80.69
2023-04-15T09:18:38.895Z,80.85
2023-04-15T09:21:12.198Z,80.87
2023-04-15T09:23:41.992Z,80.75
2023-04-15T09:26:09.427Z,80.88
2023-04-15T09:28:43.632Z,81.24
2023-04-15T09:31:11.579Z,81.39
2023-04-15T09:33:55.620Z,81.56
2023-04-15T09:36:25.461Z,81.73
2023-04-15T09:39:01.256Z,81.77
2023-04-15T09:41:28.685Z,82.19
2023-04-15T09:43:55.594Z,82.38
2023-04-15T09:46:42.264Z,82.58
2023-04-15T09:49:11.393Z,82.78
2023-04-15T09:51:38.959Z,83.00
2023-04-15T09:54:07.937Z,82.95
2023-04-15T09:56:42.234Z,82.93
2023-04-15T09:59:09.641Z,82.92
2023-04-15T10:01:37.454Z,82.75
2023-04-15T10:04:07.368Z,82.72
2023-04-15T10:06:35.995Z,82.41
2023-04-15T10:09:02.814Z,82.64
2023-04-15T10:11:31.615Z,82.69
2023-04-15T10:13:58.894Z,82.97
2023-04-15T10:16:29.368Z,83.10
2023-04-15T10:18:58.700Z,83.13
2023-04-15T10:21:25.525Z,83.05
2023-04-15T10:23:52.943Z,83.23
2023-04-15T10:26:20.271Z,83.03
2023-04-15T10:28:48.381Z,83.00
2023-04-15T10:31:15.862Z,83.06
2023-04-15T10:33:44.639Z,82.92
2023-04-15T10:36:12.662Z,82.97
2023-04-15T10:38:39.579Z,82.98
2023-04-15T10:41:23.967Z,83.13
2023-04-15T10:44:02.460Z,83.13
2023-04-15T10:46:44.112Z,83.06
2023-04-15T10:49:14.437Z,83.01
2023-04-15T10:51:43.493Z,83.06
2023-04-15T10:54:33.974Z,83.16
2023-04-15T10:57:01.704Z,83.22
2023-04-15T10:59:32.583Z,83.23
2023-04-15T11:02:04.815Z,83.10
2023-04-15T11:04:53.863Z,83.04
2023-04-15T11:07:54.859Z,82.97
2023-04-15T11:10:32.181Z,83.01
2023-04-15T11:13:01.855Z,82.76
2023-04-15T11:15:32.070Z,82.70
2023-04-15T11:18:08.572Z,82.91
2023-04-15T11:20:36.325Z,82.91
2023-04-15T11:23:14.521Z,82.87
2023-04-15T11:25:43.903Z,82.87
2023-04-15T11:28:12.662Z,82.78
2023-04-15T11:30:41.652Z,82.86
2023-04-15T11:33:12.871Z,82.85
2023-04-15T11:35:42.172Z,82.86
2023-04-15T11:38:12.558Z,82.90
2023-04-15T11:40:40.961Z,82.81
2023-04-15T11:43:14.781Z,82.84
2023-04-15T11:45:49.268Z,82.90
2023-04-15T11:48:16.303Z,83.02
2023-04-15T11:50:43.172Z,83.19
2023-04-15T11:53:13.097Z,83.23
2023-04-15T11:55:47.046Z,82.98
2023-04-15T11:58:25.014Z,82.91
2023-04-15T12:00:58.626Z,82.87
2023-04-15T12:03:29.300Z,82.88
2023-04-15T12:06:08.631Z,83.04
2023-04-15T12:08:59.146Z,83.14
2023-04-15T12:11:42.082Z,83.12
2023-04-15T12:14:12.824Z,83.00
2023-04-15T12:16:51.635Z,82.89
2023-04-15T12:19:56.474Z,82.79
2023-04-15T12:22:24.469Z,83.06
2023-04-15T12:24:57.221Z,82.99
2023-04-15T12:27:28.632Z,82.93
2023-04-15T12:30:05.361Z,83.08
2023-04-15T12:32:36.473Z,83.04
2023-04-15T12:35:03.655Z,83.07
2023-04-15T12:37:30.517Z,83.13
2023-04-15T12:39:57.562Z,83.34
2023-04-15T12:42:24.351Z,83.39
2023-04-15T12:44:51.248Z,83.15
2023-04-15T12:47:19.116Z,83.52
2023-04-15T12:49:47.138Z,83.68
2023-04-15T12:52:15.162Z,83.89
2023-04-15T12:54:42.542Z,83.71
2023-04-15T12:57:09.385Z,83.67
2023-04-15T12:59:36.796Z,83.39
2023-04-15T13:02:04.274Z,83.41
2023-04-15T13:04:31.773Z,83.44
2023-04-15T13:06:58.938Z,83.83
2023-04-15T13:09:25.931Z,83.49
2023-04-15T13:11:54.325Z,83.41
2023-04-15T13:14:21.552Z,83.26
2023-04-15T13:16:48.479Z,83.14
2023-04-15T13:19:15.853Z,82.89
2023-04-15T13:21:42.755Z,82.91
2023-04-15T13:24:09.916Z,82.76
2023-04-15T13:26:36.915Z,82.62
2023-04-15T13:29:04.884Z,82.48
2023-04-15T13:31:31.868Z,82.37
2023-04-15T13:33:58.980Z,82.29
2023-04-15T13:36:26.763Z,82.35
2023-04-15T13:38:53.805Z,82.55
2023-04-15T13:41:21.413Z,82.41
2023-04-15T13:43:49.579Z,82.26
2023-04-15T13:46:16.756Z,82.21
2023-04-15T13:48:43.831Z,82.01
2023-04-15T13:51:10.760Z,81.48
2023-04-15T13:53:39.362Z,81.25
2023-04-15T13:56:08.121Z,81.26
2023-04-15T13:58:35.653Z,80.94
2023-04-15T14:01:05.491Z,80.33
2023-04-15T14:03:33.847Z,80.34
2023-04-15T14:06:01.096Z,80.22
2023-04-15T14:08:28.060Z,80.07
2023-04-15T14:10:56.240Z,80.08
2023-04-15T14:13:23.186Z,80.12
2023-04-15T14:15:50.052Z,80.14
2023-04-15T14:18:16.997Z,79.79
2023-04-15T14:20:43.793Z,79.43
2023-04-15T14:23:10.773Z,79.29
2023-04-15T14:25:39.228Z,79.29
2023-04-15T14:28:06.365Z,79.54
2023-04-15T14:30:33.398Z,79.46
2023-04-15T14:33:00.569Z,79.57
2023-04-15T14:35:28.030Z,79.51
2023-04-15T14:37:55.876Z,79.85
2023-04-15T14:40:22.926Z,80.07
2023-04-15T14:42:50.056Z,80.14
2023-04-15T14:45:17.659Z,80.19
2023-04-15T14:47:44.839Z,80.16
2023-04-15T14:50:12.134Z,80.20
2023-04-15T14:52:39.833Z,80.12
2023-04-15T14:55:08.321Z,80.12
2023-04-15T14:57:35.302Z,80.30
2023-04-15T15:00:04.483Z,80.36
2023-04-15T15:02:38.899Z,80.72
2023-04-15T15:05:06.912Z,80.53
2023-04-15T15:07:33.836Z,80.61
2023-04-15T15:10:00.874Z,80.62
2023-04-15T15:12:27.758Z,81.39
2023-04-15T15:14:55.898Z,81.01
2023-04-15T15:17:22.876Z,81.01
2023-04-15T15:19:49.944Z,80.76
2023-04-15T15:22:18.072Z,80.54
2023-04-15T15:24:46.480Z,80.67
2023-04-15T15:27:13.367Z,81.04
2023-04-15T15:29:40.359Z,80.67
2023-04-15T15:32:08.449Z,80.74
2023-04-15T15:34:36.026Z,80.95
2023-04-15T15:37:02.872Z,80.94
2023-04-15T15:39:29.876Z,80.56
2023-04-15T15:41:56.743Z,80.69
2023-04-15T15:44:23.629Z,80.78
2023-04-15T15:46:50.908Z,80.92
2023-04-15T15:49:18.069Z,80.70
2023-04-15T15:51:45.819Z,80.64
2023-04-15T15:54:13.150Z,80.73
2023-04-15T15:56:41.270Z,80.77
2023-04-15T15:59:08.632Z,80.78
2023-04-15T16:01:35.610Z,80.94
2023-04-15T16:04:02.966Z,81.07
2023-04-15T16:06:29.930Z,81.07
2023-04-15T16:08:56.856Z,81.14
2023-04-15T16:11:24.115Z,81.27
2023-04-15T16:13:51.346Z,81.36
2023-04-15T16:16:18.253Z,81.40
2023-04-15T16:18:45.244Z,81.37
2023-04-15T16:21:12.211Z,81.27
2023-04-15T16:23:39.318Z,81.30
2023-04-15T16:26:06.674Z,81.27
2023-04-15T16:28:33.630Z,81.15
2023-04-15T16:31:00.466Z,81.04
2023-04-15T16:33:27.540Z,81.07
2023-04-15T16:35:54.418Z,81.05
2023-04-15T16:38:21.388Z,81.10
2023-04-15T16:40:48.250Z,81.09
2023-04-15T16:43:15.172Z,80.95
2023-04-15T16:45:44.418Z,80.98
2023-04-15T16:48:11.356Z,81.25
2023-04-15T16:50:38.215Z,80.97
2023-04-15T16:53:05.406Z,81.14
2023-04-15T16:55:32.223Z,81.07
2023-04-15T16:58:01.555Z,81.19
2023-04-15T17:00:36.234Z,81.23
2023-04-15T17:03:03.884Z,81.30
2023-04-15T17:05:31.170Z,81.22
2023-04-15T17:07:58.475Z,81.27
2023-04-15T17:10:26.341Z,81.33
2023-04-15T17:12:56.680Z,81.30
2023-04-15T17:15:23.815Z,81.30
2023-04-15T17:17:50.886Z,81.26
2023-04-15T17:20:18.013Z,81.38
2023-04-15T17:22:45.934Z,81.36
2023-04-15T17:25:13.860Z,81.23
2023-04-15T17:27:41.068Z,81.16
2023-04-15T17:30:08.746Z,81.21
2023-04-15T17:32:35.855Z,81.22
2023-04-15T17:35:07.202Z,81.27
2023-04-15T17:37:34.541Z,81.30
2023-04-15T17:40:01.674Z,81.35
2023-04-15T17:42:28.934Z,81.42
2023-04-15T17:44:55.832Z,81.44
2023-04-15T17:47:23.124Z,81.49
2023-04-15T17:49:49.954Z,81.50
2023-04-15T17:52:16.972Z,81.52
2023-04-15T17:54:43.822Z,81.33
2023-04-15T17:57:10.805Z,81.39
2023-04-15T17:59:37.756Z,81.49
2023-04-15T18:02:04.713Z,81.49
2023-04-15T18:04:31.769Z,81.46
2023-04-15T18:06:59.051Z,81.43
2023-04-15T18:09:26.926Z,81.49
2023-04-15T18:11:54.858Z,81.52
2023-04-15T18:14:33.576Z,81.33
2023-04-15T18:17:04.068Z,81.51
2023-04-15T18:19:31.200Z,81.54
2023-04-15T18:22:00.277Z,81.53
2023-04-15T18:24:27.897Z,81.67
2023-04-15T18:26:54.986Z,81.64
2023-04-15T18:29:22.065Z,81.67
2023-04-15T18:31:49.145Z,81.73
2023-04-15T18:34:16.143Z,81.62
2023-04-15T18:36:44.405Z,81.66
2023-04-15T18:39:11.329Z,81.65
2023-04-15T18:41:38.266Z,81.74
2023-04-15T18:44:06.526Z,81.84
2023-04-15T18:46:34.060Z,81.74
2023-04-15T18:49:01.212Z,81.91
2023-04-15T18:51:28.209Z,81.94
2023-04-15T18:53:55.281Z,82.01
2023-04-15T18:56:22.257Z,81.98
2023-04-15T18:59:28.239Z,82.04
2023-04-15T19:01:36.048Z,82.09
2023-04-15T19:04:03.405Z,82.07
2023-04-15T19:06:30.945Z,82.08
2023-04-15T19:08:58.698Z,82.22
2023-04-15T19:11:26.208Z,82.22
2023-04-15T19:13:53.146Z,82.20
2023-04-15T19:16:21.292Z,82.23
2023-04-15T19:18:48.691Z,82.17
2023-04-15T19:21:15.833Z,82.14
2023-04-15T19:23:45.747Z,82.21
2023-04-15T19:26:12.813Z,82.14
2023-04-15T19:28:39.687Z,82.10
2023-04-15T19:31:06.872Z,82.16
2023-04-15T19:33:34.049Z,82.20
2023-04-15T19:36:04.283Z,82.23
2023-04-15T19:38:32.324Z,82.21
2023-04-15T19:40:59.400Z,82.17
2023-04-15T19:43:27.730Z,82.11
2023-04-15T19:45:55.111Z,82.09
2023-04-15T19:48:24.552Z,82.11
2023-04-15T19:50:51.721Z,82.10
2023-04-15T19:53:18.759Z,82.22
2023-04-15T19:55:47.078Z,82.16
2023-04-15T19:58:14.439Z,82.17
2023-04-15T20:00:41.714Z,82.04
2023-04-15T20:03:09.155Z,81.97
2023-04-15T20:05:36.157Z,82.01
2023-04-15T20:08:03.475Z,82.03
2023-04-15T20:10:31.873Z,82.04
2023-04-15T20:12:59.175Z,82.04
2023-04-15T20:15:26.478Z,82.13
2023-04-15T20:17:53.583Z,82.10
2023-04-15T20:20:21.044Z,82.20
2023-04-15T20:22:48.470Z,82.26
2023-04-15T20:25:15.789Z,82.23
2023-04-15T20:27:43.893Z,82.33
2023-04-15T20:30:11.665Z,82.48
2023-04-15T20:32:38.937Z,82.56
2023-04-15T20:35:07.050Z,82.67
2023-04-15T20:37:34.699Z,82.70
2023-04-15T20:40:02.446Z,82.72
2023-04-15T20:42:34.666Z,82.55
2023-04-15T20:45:02.262Z,82.65
2023-04-15T20:47:31.016Z,82.67
2023-04-15T20:49:58.397Z,82.56
2023-04-15T20:52:25.184Z,82.43
2023-04-15T20:54:52.314Z,82.39
2023-04-15T20:57:20.302Z,82.20
2023-04-15T20:59:48.217Z,82.09
2023-04-15T21:02:15.682Z,82.03
2023-04-15T21:04:42.890Z,81.93
2023-04-15T21:07:10.285Z,81.94
2023-04-15T21:09:41.361Z,81.73
2023-04-15T21:12:08.841Z,81.73
2023-04-15T21:14:37.120Z,81.59
2023-04-15T21:17:09.182Z,81.68
2023-04-15T21:19:37.859Z,81.62
2023-04-15T21:22:04.952Z,81.74
2023-04-15T21:24:32.066Z,81.75
2023-04-15T21:26:58.903Z,81.87
2023-04-15T21:29:26.195Z,81.91
2023-04-15T21:31:54.167Z,81.91
2023-04-15T21:34:21.061Z,81.96
2023-04-15T21:36:47.931Z,81.94
2023-04-15T21:39:14.878Z,81.93
2023-04-15T21:41:41.833Z,81.84
2023-04-15T21:44:08.781Z,81.84
2023-04-15T21:46:35.633Z,81.84
2023-04-15T21:49:03.698Z,81.76
2023-04-15T21:51:31.540Z,81.72
2023-04-15T21:53:59.077Z,81.67
2023-04-15T21:56:26.317Z,81.55
2023-04-15T21:59:00.055Z,81.41
2023-04-15T22:01:27.772Z,81.36
2023-04-15T22:03:54.834Z,81.24
2023-04-15T22:06:21.999Z,81.27
2023-04-15T22:08:57.416Z,81.17
2023-04-15T22:11:29.681Z,81.36
2023-04-15T22:13:59.986Z,81.19
2023-04-15T22:16:27.322Z,81.10
2023-04-15T22:18:54.856Z,81.14
2023-04-15T22:21:21.978Z,81.13
2023-04-15T22:23:49.314Z,80.98
2023-04-15T22:26:16.318Z,80.90
2023-04-15T22:28:43.226Z,80.78
2023-04-15T22:31:11.428Z,80.79
2023-04-15T22:33:38.948Z,80.88
2023-04-15T22:36:06.319Z,80.90
2023-04-15T22:38:33.377Z,80.94
2023-04-15T22:41:00.467Z,80.92
2023-04-15T22:43:27.684Z,81.07
2023-04-15T22:45:55.222Z,81.02
2023-04-15T22:48:22.616Z,81.17
2023-04-15T22:50:50.006Z,81.20
2023-04-15T22:53:17.986Z,81.13
2023-04-15T22:55:48.338Z,81.13
2023-04-15T22:58:17.656Z,81.23
2023-04-15T23:00:45.219Z,81.33
2023-04-15T23:03:12.240Z,81.33
2023-04-15T23:05:41.200Z,81.27
2023-04-15T23:08:08.524Z,81.27
2023-04-15T23:10:35.599Z,81.33
2023-04-15T23:13:02.397Z,81.33
2023-04-15T23:15:29.532Z,81.33
2023-04-15T23:17:56.400Z,81.34
2023-04-15T23:20:23.353Z,81.33
2023-04-15T23:22:50.292Z,81.48
2023-04-15T23:25:17.294Z,81.36
2023-04-15T23:27:44.088Z,81.45
2023-04-15T23:30:11.258Z,81.39
2023-04-15T23:32:38.162Z,81.36
2023-04-15T23:35:05.390Z,81.36
2023-04-15T23:37:32.279Z,81.43
2023-04-15T23:39:59.237Z,81.45
2023-04-15T23:42:26.408Z,81.50
2023-04-15T23:44:53.461Z,81.43
2023-04-15T23:47:20.985Z,81.47
2023-04-15T23:49:47.894Z,81.71
2023-04-15T23:52:14.857Z,81.77
2023-04-15T23:54:41.661Z,81.76
2023-04-15T23:57:08.436Z,81.73
2023-04-15T23:59:35.344Z,81.76
